Time;durP1;ratioP1;P1;durP2;ratioP2;P2;SDS_P1;SDS_P2;PMS_P1;PMS_P2;Temp;Humidity;BMP_temperature;BMP_pressure;BME280_temperature;BME280_humidity;BME280_pressure;Samples;Min_cycle;Max_cycle;Signal;HPM_P1;HPM_P2
2021/01/31 00:01:36;;;;;;;35.30;10.03;;;;;;;-5.38;74.25;99727.34;1696853;81;25990;-72
2021/01/31 00:04:04;;;;;;;31.97;10.43;;;;;;;-5.32;74.31;99738.70;1712437;82;26232;-71
2021/01/31 00:06:31;;;;;;;44.55;11.63;;;;;;;-5.33;74.29;99745.22;1708569;80;25776;-71
2021/01/31 00:09:00;;;;;;;44.75;12.73;;;;;;;-5.32;74.29;99741.74;1714987;82;28381;-72
2021/01/31 00:11:27;;;;;;;36.05;13.08;;;;;;;-5.32;74.30;99744.35;1711054;82;25813;-73
2021/01/31 00:13:55;;;;;;;47.85;13.30;;;;;;;-5.32;74.30;99740.44;1670853;83;26048;-71
2021/01/31 00:16:23;;;;;;;41.23;13.30;;;;;;;-5.32;74.31;99742.61;1694253;82;26755;-70
2021/01/31 00:18:51;;;;;;;40.45;12.45;;;;;;;-5.29;74.36;99741.76;1681117;80;25923;-70
2021/01/31 00:21:19;;;;;;;44.95;13.83;;;;;;;-5.24;74.40;99733.52;1701406;82;28413;-72
2021/01/31 00:23:46;;;;;;;45.05;13.88;;;;;;;-5.18;74.42;99737.86;1661040;83;26001;-71
2021/01/31 00:26:14;;;;;;;42.23;13.08;;;;;;;-5.13;74.41;99733.11;1690896;82;25999;-70
2021/01/31 00:28:43;;;;;;;47.60;14.13;;;;;;;-5.09;74.42;99729.64;1678101;82;26342;-71
2021/01/31 00:31:11;;;;;;;45.33;14.20;;;;;;;-5.03;74.41;99728.36;1689343;82;25730;-70
2021/01/31 00:33:39;;;;;;;49.77;13.78;;;;;;;-4.98;74.42;99724.47;1696280;81;27546;-71
2021/01/31 00:36:07;;;;;;;49.27;15.25;;;;;;;-4.95;74.41;99720.13;1661254;83;25908;-71
2021/01/31 00:38:35;;;;;;;47.00;13.20;;;;;;;-4.88;74.46;99722.77;1698810;81;26006;-71
2021/01/31 00:41:05;;;;;;;33.75;11.75;;;;;;;-4.85;74.46;99723.65;1696878;81;26374;-71
2021/01/31 00:43:33;;;;;;;43.13;12.58;;;;;;;-4.80;74.46;99720.62;1688695;82;25812;-73
2021/01/31 00:46:01;;;;;;;36.63;12.37;;;;;;;-4.77;74.45;99722.37;1629900;86;27502;-70
2021/01/31 00:48:29;;;;;;;42.30;13.13;;;;;;;-4.74;74.49;99721.07;1651808;85;26441;-71
2021/01/31 00:50:56;;;;;;;46.70;13.95;;;;;;;-4.74;74.47;99719.33;1651679;85;26316;-73
2021/01/31 00:55:52;;;;;;;38.02;13.25;;;;;;;-4.60;74.54;99716.33;1867664;75;34931;-71
2021/01/31 00:58:19;;;;;;;32.50;10.65;;;;;;;-4.60;74.53;99716.33;1798197;77;25879;-71
2021/01/31 01:00:47;;;;;;;36.25;10.98;;;;;;;-4.57;74.56;99715.45;1794875;76;27723;-72
2021/01/31 01:03:15;;;;;;;33.42;11.48;;;;;;;-4.50;74.57;99715.91;1798777;77;25874;-71
2021/01/31 01:05:44;;;;;;;30.27;10.88;;;;;;;-4.46;74.60;99723.33;1799599;76;26000;-71
2021/01/31 01:08:13;;;;;;;32.70;11.50;;;;;;;-4.42;74.62;99724.64;1810373;77;26001;-71
2021/01/31 01:10:43;;;;;;;28.52;10.63;;;;;;;-4.38;74.60;99726.40;1790388;76;25834;-71
2021/01/31 01:13:11;;;;;;;32.55;10.90;;;;;;;-4.33;74.63;99720.73;1816446;77;26059;-71
2021/01/31 01:15:41;;;;;;;21.20;8.60;;;;;;;-4.29;74.66;99718.56;1802893;76;25908;-72
2021/01/31 01:18:09;;;;;;;26.12;8.98;;;;;;;-4.27;74.62;99725.98;1808324;77;26154;-71
2021/01/31 01:20:36;;;;;;;28.17;8.35;;;;;;;-4.27;74.62;99720.75;1792268;76;25925;-71
2021/01/31 01:23:04;;;;;;;23.52;7.33;;;;;;;-4.26;74.54;99722.49;1811382;77;25795;-71
2021/01/31 01:25:32;;;;;;;23.92;9.35;;;;;;;-4.26;74.51;99726.85;1813983;77;28420;-73
2021/01/31 01:28:01;;;;;;;24.92;8.75;;;;;;;-4.30;74.39;99726.41;1746645;80;26000;-76
2021/01/31 01:30:30;;;;;;;22.40;8.98;;;;;;;-4.32;74.37;99727.72;1744530;78;25844;-75
2021/01/31 01:32:59;;;;;;;26.25;9.80;;;;;;;-4.35;74.30;99730.33;1743840;80;26324;-75
2021/01/31 01:35:28;;;;;;;28.57;10.13;;;;;;;-4.36;74.32;99731.63;1758959;80;25978;-75
2021/01/31 01:37:57;;;;;;;38.10;13.13;;;;;;;-4.39;74.23;99717.23;1775377;79;27652;-75
2021/01/31 01:40:35;;;;;;;41.33;14.78;;;;;;;-4.42;74.24;99714.19;1762919;78;26167;-75
2021/01/31 01:43:05;;;;;;;32.55;11.57;;;;;;;-4.44;74.24;99721.16;1743854;80;26909;-75
2021/01/31 01:45:33;;;;;;;36.08;12.95;;;;;;;-4.47;74.19;99722.45;1741272;78;26113;-75
2021/01/31 01:48:17;;;;;;;43.95;15.60;;;;;;;-4.54;74.11;99723.31;1722297;80;25881;-76
2021/01/31 01:50:51;;;;;;;41.18;13.55;;;;;;;-4.62;74.13;99716.75;1718072;80;27738;-75
2021/01/31 01:53:22;;;;;;;43.87;13.78;;;;;;;-4.65;74.24;99721.97;1759612;78;25836;-75
2021/01/31 01:56:10;;;;;;;39.35;12.75;;;;;;;-4.61;74.31;99722.86;1750290;78;25819;-77
2021/01/31 01:58:39;;;;;;;49.18;15.58;;;;;;;-4.64;74.21;99730.69;1762151;80;26204;-75
2021/01/31 02:01:08;;;;;;;35.95;14.25;;;;;;;-4.66;74.32;99725.45;1740011;79;25776;-75
2021/01/31 02:03:42;;;;;;;42.88;15.00;;;;;;;-4.64;74.34;99718.92;1729691;80;27393;-74
2021/01/31 02:06:22;;;;;;;41.25;15.00;;;;;;;-4.64;74.38;99720.23;1722152;80;25937;-75
2021/01/31 02:08:51;;;;;;;44.13;15.47;;;;;;;-4.63;74.35;99725.90;1736213;79;25955;-75
2021/01/31 02:11:19;;;;;;;36.63;11.60;;;;;;;-4.62;74.46;99717.19;1739648;80;25996;-77
2021/01/31 02:13:56;;;;;;;38.90;14.50;;;;;;;-4.61;74.37;99721.55;1726852;79;25806;-72
2021/01/31 02:16:57;;;;;;;48.40;16.00;;;;;;;-4.67;74.36;99724.14;1735923;80;27463;-72
2021/01/31 02:19:59;;;;;;;54.30;15.23;;;;;;;-4.67;74.47;99730.24;1732947;78;32462;-71
2021/01/31 02:23:01;;;;;;;45.80;15.13;;;;;;;-4.70;74.48;99732.84;1730386;80;25867;-73
2021/01/31 02:26:10;;;;;;;42.50;15.58;;;;;;;-4.72;74.55;99730.66;1734366;80;25799;-72
2021/01/31 02:29:02;;;;;;;43.10;15.23;;;;;;;-4.76;74.58;99717.58;1727736;79;25848;-72
2021/01/31 02:31:59;;;;;;;31.05;11.28;;;;;;;-4.72;74.60;99732.41;1735178;79;27776;-73
2021/01/31 02:34:57;;;;;;;41.95;16.05;;;;;;;-4.74;74.63;99728.91;1743228;80;25992;-73
2021/01/31 02:37:42;;;;;;;40.95;14.40;;;;;;;-4.79;74.66;99726.28;1696701;82;25932;-74
2021/01/31 02:40:15;;;;;;;41.55;14.40;;;;;;;-4.78;74.75;99729.77;1681829;82;25867;-74
2021/01/31 02:43:16;;;;;;;37.67;12.58;;;;;;;-4.79;74.80;99725.41;1715343;79;25901;-74
2021/01/31 02:45:51;;;;;;;44.60;15.20;;;;;;;-4.79;74.73;99733.25;1738855;79;27504;-71
2021/01/31 02:48:29;;;;;;;29.05;10.82;;;;;;;-4.84;74.87;99732.36;1737020;80;25889;-73
2021/01/31 02:51:15;;;;;;;34.23;12.00;;;;;;;-4.84;74.92;99731.92;1734365;80;26509;-74
2021/01/31 02:54:06;;;;;;;49.35;15.68;;;;;;;-4.91;74.89;99727.11;1735039;79;26003;-72
2021/01/31 02:56:47;;;;;;;;;;;;;;;-4.94;74.97;99720.56;1734922;80;26012;-73
2021/01/31 02:59:20;;;;;;;31.30;10.93;;;;;;;-4.94;75.03;99721.00;1730635;80;28516;-73
2021/01/31 03:01:53;;;;;;;33.33;12.68;;;;;;;-4.97;75.01;99719.25;1709341;79;25806;-73
2021/01/31 03:04:42;;;;;;;34.53;13.20;;;;;;;-5.00;74.99;99711.39;1733245;80;26635;-74
2021/01/31 03:07:27;;;;;;;44.45;14.28;;;;;;;-5.05;75.05;99711.81;1733261;80;25852;-72
2021/01/31 03:10:10;;;;;;;39.03;12.90;;;;;;;-5.09;75.05;99711.78;1737009;79;25806;-71
2021/01/31 03:12:45;;;;;;;35.48;14.50;;;;;;;-5.11;75.06;99723.97;1734174;80;27268;-72
2021/01/31 03:15:21;;;;;;;35.95;12.73;;;;;;;-5.14;75.11;99718.73;1725557;81;26317;-71
2021/01/31 03:18:03;;;;;;;42.20;14.68;;;;;;;-5.15;75.17;99713.94;1728922;79;26386;-74
2021/01/31 03:20:39;;;;;;;47.78;15.03;;;;;;;-5.17;75.14;99727.42;1737452;79;26099;-71
2021/01/31 03:23:33;;;;;;;34.60;13.15;;;;;;;-5.21;75.11;99722.20;1743673;79;26347;-72
2021/01/31 03:26:09;;;;;;;43.10;14.20;;;;;;;-5.24;75.16;99726.98;1735930;80;28386;-73
2021/01/31 03:28:37;;;;;;;36.40;14.00;;;;;;;-5.29;75.13;99726.09;1739287;79;25890;-72
2021/01/31 03:31:07;;;;;;;32.50;12.88;;;;;;;-5.31;75.19;99729.13;1734532;80;26032;-73
2021/01/31 03:33:43;;;;;;;32.48;11.73;;;;;;;-5.37;75.09;99733.87;1725282;79;26504;-71
2021/01/31 03:36:12;;;;;;;40.12;12.95;;;;;;;-5.40;75.17;99738.21;1759941;79;25974;-71
2021/01/31 03:38:49;;;;;;;40.35;13.22;;;;;;;-5.43;75.15;99736.45;1718270;79;25961;-75
2021/01/31 03:41:21;;;;;;;44.85;15.55;;;;;;;-5.47;75.16;99737.30;1723028;80;25961;-72
2021/01/31 03:43:50;;;;;;;37.00;14.68;;;;;;;-5.52;75.22;99737.70;1730510;80;26127;-74
2021/01/31 03:46:44;;;;;;;44.95;16.23;;;;;;;-5.53;75.24;99738.56;1727205;80;26274;-72
2021/01/31 03:49:28;;;;;;;44.60;15.18;;;;;;;-5.58;75.21;99742.87;1767256;78;26141;-72
2021/01/31 03:51:56;;;;;;;53.98;16.85;;;;;;;-5.61;75.26;99742.42;1736282;80;27560;-72
2021/01/31 03:54:25;;;;;;;56.68;18.30;;;;;;;-5.62;75.32;99746.33;1726171;80;26092;-72
2021/01/31 03:57:03;;;;;;;43.00;14.78;;;;;;;-5.63;75.31;99752.41;1737703;79;25888;-73
2021/01/31 03:59:39;;;;;;;46.55;17.65;;;;;;;-5.64;75.36;99755.45;1716478;79;26133;-73
2021/01/31 04:02:11;;;;;;;49.15;17.75;;;;;;;-5.62;75.39;99749.81;1731270;80;26303;-72
2021/01/31 04:04:48;;;;;;;49.58;17.05;;;;;;;-5.61;75.46;99746.77;1736903;80;28345;-72
2021/01/31 04:07:21;;;;;;;55.35;19.15;;;;;;;-5.59;75.47;99739.83;1712457;80;25846;-73
2021/01/31 04:09:49;;;;;;;48.87;15.72;;;;;;;-5.57;75.72;99749.42;1730573;79;25844;-72
2021/01/31 04:12:22;;;;;;;47.45;15.72;;;;;;;-5.54;75.63;99749.87;1735688;80;25842;-72
2021/01/31 04:15:00;;;;;;;48.13;16.67;;;;;;;-5.52;75.57;99756.41;1737808;80;25881;-72
2021/01/31 04:17:28;;;;;;;48.58;16.80;;;;;;;-5.50;75.62;99754.25;1726721;80;26115;-72
2021/01/31 04:19:56;;;;;;;49.15;15.08;;;;;;;-5.45;75.72;99757.77;1726926;80;25841;-72
2021/01/31 04:22:24;;;;;;;50.67;16.85;;;;;;;-5.41;75.66;99754.73;1740557;80;26187;-72
2021/01/31 04:24:51;;;;;;;55.55;18.20;;;;;;;-5.40;75.63;99747.34;1724244;79;26007;-72
2021/01/31 04:27:19;;;;;;;47.27;16.00;;;;;;;-5.39;75.73;99750.41;1735441;80;28408;-72
2021/01/31 04:29:47;;;;;;;50.55;18.07;;;;;;;-5.35;75.72;99749.13;1734405;79;27471;-71
2021/01/31 04:32:14;;;;;;;44.85;16.48;;;;;;;-5.36;75.79;99748.69;1734767;80;25836;-71
2021/01/31 04:34:42;;;;;;;52.58;18.57;;;;;;;-5.32;75.85;99753.06;1734626;80;25863;-71
2021/01/31 04:37:10;;;;;;;49.90;17.05;;;;;;;-5.31;75.85;99753.50;1721538;79;26511;-72
2021/01/31 04:39:37;;;;;;;46.05;16.40;;;;;;;-5.26;75.91;99760.06;1726325;79;25883;-71
2021/01/31 04:42:08;;;;;;;42.67;14.65;;;;;;;-5.25;75.92;99760.07;1724355;80;28530;-71
2021/01/31 04:44:36;;;;;;;42.83;13.93;;;;;;;-5.20;75.93;99762.70;1754130;78;25822;-72
2021/01/31 04:47:17;;;;;;;43.63;13.78;;;;;;;-5.18;75.95;99766.17;1727279;80;26578;-72
2021/01/31 04:50:02;;;;;;;42.67;14.03;;;;;;;-5.15;75.98;99762.27;1727801;79;26446;-73
2021/01/31 04:52:58;;;;;;;39.00;14.87;;;;;;;-5.13;76.02;99767.06;1733961;80;25956;-73
2021/01/31 04:55:37;;;;;;;39.67;14.45;;;;;;;-5.11;76.07;99761.85;1737458;80;27283;-75
2021/01/31 04:58:20;;;;;;;49.40;15.63;;;;;;;-5.09;76.13;99759.69;1761723;79;25937;-73
2021/01/31 05:01:09;;;;;;;50.15;16.17;;;;;;;-5.09;76.08;99758.38;1761767;79;25805;-74
2021/01/31 05:04:06;;;;;;;41.20;13.88;;;;;;;-5.08;76.13;99765.35;1751638;79;25855;-72
2021/01/31 05:06:47;;;;;;;52.48;15.15;;;;;;;-5.08;76.12;99762.73;1758586;78;25949;-73
2021/01/31 05:09:18;;;;;;;;;;;;;;;-5.06;76.14;99771.89;1762381;78;27181;-73
2021/01/31 05:12:08;;;;;;;43.95;16.62;;;;;;;-5.08;76.14;99769.70;1751892;79;25924;-73
2021/01/31 05:15:20;;;;;;;35.70;13.33;;;;;;;-5.10;76.20;99771.00;1763818;78;25945;-73
2021/01/31 05:17:52;;;;;;;51.15;13.95;;;;;;;-5.07;76.23;99767.53;1743967;80;26459;-73
2021/01/31 05:20:25;;;;;;;38.70;13.58;;;;;;;-5.05;76.29;99765.37;1741963;80;25973;-73
2021/01/31 05:22:57;;;;;;;37.05;12.88;;;;;;;-5.01;76.32;99773.66;1756264;79;27223;-71
2021/01/31 05:25:29;;;;;;;31.75;12.20;;;;;;;-4.98;76.31;99771.06;1757202;80;26224;-72
2021/01/31 05:28:00;;;;;;;32.83;11.60;;;;;;;-4.96;76.34;99770.64;1751471;80;25892;-73
2021/01/31 05:30:32;;;;;;;39.40;12.33;;;;;;;-4.93;76.35;99773.27;1744470;81;26026;-74
2021/01/31 05:33:11;;;;;;;32.88;11.57;;;;;;;-4.90;76.34;99770.67;1739130;80;25857;-72
2021/01/31 05:35:48;;;;;;;37.10;10.53;;;;;;;-4.86;76.34;99773.30;1741913;79;27427;-74
2021/01/31 05:38:36;;;;;;;25.88;9.40;;;;;;;-4.85;76.35;99773.30;1761346;79;26402;-72
2021/01/31 05:41:26;;;;;;;34.92;10.05;;;;;;;-4.81;76.34;99772.89;1773984;79;26057;-74
2021/01/31 05:44:16;;;;;;;21.42;8.93;;;;;;;-4.82;76.33;99762.86;1749761;80;25803;-73
2021/01/31 05:46:57;;;;;;;23.55;8.48;;;;;;;-4.80;76.36;99776.81;1758244;79;25838;-72
2021/01/31 05:49:47;;;;;;;20.27;8.90;;;;;;;-4.79;76.36;99778.56;1743786;80;33446;-71
2021/01/31 05:52:26;;;;;;;19.42;7.55;;;;;;;-4.76;76.37;99793.39;1753907;79;25831;-72
2021/01/31 05:54:56;;;;;;;26.55;7.90;;;;;;;-4.75;76.35;99792.52;1782550;78;25827;-72
2021/01/31 05:57:31;;;;;;;21.87;7.62;;;;;;;-4.75;76.33;99788.16;1729567;81;26139;-72
2021/01/31 06:00:18;;;;;;;18.70;8.53;;;;;;;-4.74;76.35;99797.75;1728787;79;25745;-74
2021/01/31 06:03:05;;;;;;;21.48;8.23;;;;;;;-4.71;76.35;99799.50;1720288;79;27554;-72
2021/01/31 06:05:33;;;;;;;24.52;8.85;;;;;;;-4.71;76.31;99804.30;1727311;79;26022;-74
2021/01/31 06:08:13;;;;;;;16.97;7.62;;;;;;;-4.73;76.28;99801.23;1726795;80;25905;-72
2021/01/31 06:10:43;;;;;;;20.55;7.78;;;;;;;-4.73;76.30;99803.86;1720682;79;25829;-72
2021/01/31 06:13:22;;;;;;;18.37;7.27;;;;;;;-4.74;76.26;99804.29;1693494;81;25892;-73
2021/01/31 06:16:00;;;;;;;17.65;7.25;;;;;;;-4.75;76.28;99807.77;1724401;79;27472;-73
2021/01/31 06:18:44;;;;;;;22.58;8.18;;;;;;;-4.74;76.27;99812.13;1729349;81;26456;-73
2021/01/31 06:21:16;;;;;;;19.70;7.70;;;;;;;-4.75;76.23;99813.00;1733363;81;26329;-74
2021/01/31 06:23:48;;;;;;;19.17;7.33;;;;;;;-4.75;76.22;99814.73;1727395;79;26349;-73
2021/01/31 06:26:22;;;;;;;15.88;7.53;;;;;;;-4.76;76.22;99822.14;1707386;81;25949;-72
2021/01/31 06:28:56;;;;;;;16.50;7.12;;;;;;;-4.80;76.18;99818.64;1722668;79;27295;-72
2021/01/31 06:31:47;;;;;;;13.38;6.17;;;;;;;-4.85;76.15;99816.43;1731190;81;25773;-72
2021/01/31 06:34:15;;;;;;;12.07;5.53;;;;;;;-4.88;76.12;99822.08;1724730;79;26133;-72
2021/01/31 06:37:12;;;;;;;14.40;5.90;;;;;;;-4.95;76.11;99823.78;1723627;80;25963;-73
2021/01/31 06:40:00;;;;;;;12.35;6.00;;;;;;;-4.99;76.09;99821.58;1685755;82;25766;-71
2021/01/31 06:43:00;;;;;;;12.30;5.45;;;;;;;-5.06;76.10;99826.33;1677021;82;27795;-72
2021/01/31 06:46:01;;;;;;;18.67;7.17;;;;;;;-5.12;76.07;99823.67;1743833;79;25829;-71
2021/01/31 06:48:58;;;;;;;15.35;6.25;;;;;;;-5.22;76.07;99815.80;1719636;79;25882;-73
2021/01/31 06:51:52;;;;;;;15.53;6.60;;;;;;;-5.20;76.05;99829.31;1727195;81;26470;-74
2021/01/31 06:54:48;;;;;;;24.35;6.87;;;;;;;-5.24;76.04;99834.95;1726593;81;26081;-74
2021/01/31 06:57:28;;;;;;;15.98;6.72;;;;;;;-5.27;76.03;99834.93;1730251;80;28031;-74
2021/01/31 07:00:21;;;;;;;16.10;6.58;;;;;;;-5.31;76.02;99837.08;1760851;79;25912;-74
2021/01/31 07:03:06;;;;;;;15.48;6.50;;;;;;;-5.33;76.01;99845.77;1711674;80;26442;-74
2021/01/31 07:06:30;;;;;;;16.77;7.08;;;;;;;-5.37;76.00;99839.64;1756818;79;26421;-72
2021/01/31 07:09:18;;;;;;;16.95;5.75;;;;;;;-5.38;76.00;99847.03;1725615;80;25823;-74
2021/01/31 07:12:21;;;;;;;16.42;6.22;;;;;;;-5.41;75.96;99848.75;1739488;79;28618;-74
2021/01/31 07:15:10;;;;;;;20.40;7.08;;;;;;;-5.45;75.96;99854.81;1755875;79;26011;-73
2021/01/31 07:17:58;;;;;;;13.25;6.35;;;;;;;-5.48;75.97;99849.13;1738393;79;26398;-73
2021/01/31 07:20:38;;;;;;;17.15;6.00;;;;;;;-5.48;75.97;99857.39;1713203;79;25908;-74
2021/01/31 07:23:16;;;;;;;16.40;6.35;;;;;;;-5.49;75.96;99860.44;1747518;80;26201;-75
2021/01/31 07:25:56;;;;;;;19.75;7.70;;;;;;;-5.47;75.99;99859.14;1730698;80;27995;-72
2021/01/31 07:28:35;;;;;;;23.52;7.95;;;;;;;-5.46;75.97;99866.11;1738524;80;26191;-72
2021/01/31 07:31:11;;;;;;;23.27;9.23;;;;;;;-5.44;76.00;99863.08;1735339;80;25885;-72
2021/01/31 07:33:47;;;;;;;27.90;10.68;;;;;;;-5.43;76.01;99861.79;1732112;79;26637;-72
2021/01/31 07:36:32;;;;;;;35.85;12.85;;;;;;;-5.39;76.01;99865.30;1728756;79;25834;-72
2021/01/31 07:39:08;;;;;;;48.68;16.55;;;;;;;-5.38;76.03;99867.05;1758730;79;28609;-72
2021/01/31 07:41:41;;;;;;;41.15;14.87;;;;;;;-5.37;76.00;99861.84;1730952;79;25874;-73
2021/01/31 07:44:12;;;;;;;33.60;12.45;;;;;;;-5.34;76.01;99874.05;1729630;80;26235;-74
2021/01/31 07:46:40;;;;;;;;;;;;;;;-5.31;76.04;99869.72;1736483;79;26343;-75
2021/01/31 07:49:08;;;;;;;31.97;9.28;;;;;;;-5.27;76.03;99868.89;1737422;80;26990;-74
2021/01/31 07:51:42;;;;;;;33.63;10.80;;;;;;;-5.23;76.07;99864.56;1734551;79;26133;-74
2021/01/31 07:54:24;;;;;;;26.23;9.63;;;;;;;-5.19;76.07;99861.50;1726040;80;26695;-75
2021/01/31 07:56:56;;;;;;;35.63;12.35;;;;;;;-5.14;76.05;99863.72;1729268;79;25982;-72
2021/01/31 07:59:28;;;;;;;32.38;11.03;;;;;;;-5.09;76.07;99865.50;1730923;80;27108;-75
2021/01/31 08:01:57;;;;;;;36.55;12.25;;;;;;;-5.03;76.06;99855.52;1731476;80;25551;-75
2021/01/31 08:04:36;;;;;;;37.17;13.08;;;;;;;-4.99;76.03;99863.39;1754984;80;27700;-75
2021/01/31 08:07:07;;;;;;;31.12;11.40;;;;;;;-4.93;76.07;99863.86;1739739;80;26629;-74
2021/01/31 08:09:44;;;;;;;26.25;9.75;;;;;;;-4.84;76.08;99865.66;1721181;80;26285;-75
2021/01/31 08:12:14;;;;;;;24.60;9.25;;;;;;;-4.72;76.01;99870.53;1758149;79;25944;-75
2021/01/31 08:15:15;;;;;;;23.62;9.40;;;;;;;-4.63;76.09;99874.50;1758323;78;26161;-75
2021/01/31 08:18:01;;;;;;;26.33;9.98;;;;;;;-4.50;76.10;99870.64;1735132;79;26391;-75
2021/01/31 08:20:34;;;;;;;20.32;8.03;;;;;;;-4.40;76.00;99871.99;1740758;80;25840;-75
2021/01/31 08:23:13;;;;;;;21.77;8.30;;;;;;;-4.35;76.06;99865.04;1737907;80;25948;-74
2021/01/31 08:26:04;;;;;;;15.50;7.78;;;;;;;-4.22;75.98;99876.86;1717261;79;25816;-76
2021/01/31 08:28:35;;;;;;;23.22;9.40;;;;;;;-4.13;75.96;99876.46;1736546;80;25816;-77
2021/01/31 08:31:15;;;;;;;19.52;8.60;;;;;;;-4.03;75.99;99882.16;1746163;80;27454;-78
2021/01/31 08:34:02;;;;;;;22.80;8.80;;;;;;;-3.91;76.02;99887.87;1730679;79;26300;-77
2021/01/31 08:36:37;;;;;;;21.27;8.53;;;;;;;-3.78;75.99;99889.65;1732098;80;26016;-77
2021/01/31 08:39:10;;;;;;;18.20;7.72;;;;;;;-3.63;75.97;99896.66;1729766;80;26051;-75
2021/01/31 08:41:41;;;;;;;18.65;7.92;;;;;;;-3.51;75.97;99887.95;1742857;79;25916;-75
2021/01/31 08:44:14;;;;;;;20.88;7.87;;;;;;;-3.38;75.89;99882.72;1729823;80;28639;-76
2021/01/31 08:47:04;;;;;;;19.02;8.45;;;;;;;-3.25;75.79;99887.96;1737121;80;26567;-75
2021/01/31 08:49:32;;;;;;;24.15;9.43;;;;;;;-3.16;75.76;99880.10;1737336;79;25966;-74
2021/01/31 08:52:09;;;;;;;21.80;8.90;;;;;;;-3.06;75.70;99884.03;1720541;80;25872;-74
2021/01/31 08:54:37;;;;;;;18.48;7.67;;;;;;;-2.95;75.36;99878.77;1734758;78;26025;-75
2021/01/31 08:57:08;;;;;;;17.50;7.03;;;;;;;-2.87;75.47;99887.94;1747710;78;27828;-78
2021/01/31 08:59:42;;;;;;;20.00;8.60;;;;;;;-2.80;75.41;99889.68;1727501;79;25866;-76
2021/01/31 09:02:18;;;;;;;22.05;9.58;;;;;;;-2.71;75.19;99892.28;1732093;80;25964;-74
2021/01/31 09:04:59;;;;;;;21.30;8.65;;;;;;;-2.68;75.08;99889.22;1730406;80;26459;-75
2021/01/31 09:07:44;;;;;;;21.65;9.58;;;;;;;-2.65;74.87;99889.65;1736846;80;25917;-76
2021/01/31 09:10:35;;;;;;;25.72;8.68;;;;;;;-2.69;74.54;99891.84;1732794;80;27128;-77
2021/01/31 09:13:31;;;;;;;20.45;9.08;;;;;;;-2.70;74.56;99895.34;1733024;80;26658;-75
2021/01/31 09:16:25;;;;;;;18.77;8.18;;;;;;;-2.66;74.54;99894.46;1723911;80;25759;-75
2021/01/31 09:19:19;;;;;;;24.35;8.70;;;;;;;-2.64;74.23;99890.95;1733534;80;28195;-75
2021/01/31 09:21:49;;;;;;;21.45;8.60;;;;;;;-2.67;74.11;99888.34;1720800;79;25897;-75
2021/01/31 09:24:20;;;;;;;25.57;9.87;;;;;;;-2.62;74.22;99889.20;1747842;80;27544;-76
2021/01/31 09:26:56;;;;;;;26.77;9.20;;;;;;;-2.56;74.06;99890.03;1722621;80;35221;-76
2021/01/31 09:29:28;;;;;;;25.80;9.35;;;;;;;-2.53;73.69;99893.96;1730817;80;26735;-74
2021/01/31 09:32:10;;;;;;;25.23;9.65;;;;;;;-2.56;73.72;99898.77;1734665;80;26489;-74
2021/01/31 09:34:40;;;;;;;23.10;9.65;;;;;;;-2.63;73.81;99890.52;1725959;79;26002;-77
2021/01/31 09:37:21;;;;;;;27.35;9.98;;;;;;;-2.57;73.78;99900.97;1729629;79;27389;-75
2021/01/31 09:39:51;;;;;;;36.85;10.30;;;;;;;-2.52;73.83;99902.27;1725283;79;25926;-75
2021/01/31 09:42:20;;;;;;;20.65;8.80;;;;;;;-2.50;73.58;99901.83;1731614;80;26568;-76
2021/01/31 09:44:52;;;;;;;23.35;9.30;;;;;;;-2.48;73.67;99907.94;1737434;79;26496;-75
2021/01/31 09:47:21;;;;;;;25.20;10.30;;;;;;;-2.42;73.66;99901.36;1728444;79;26777;-76
2021/01/31 09:50:00;;;;;;;24.60;9.08;;;;;;;-2.41;73.40;99907.92;1730391;79;28373;-77
2021/01/31 09:52:29;;;;;;;21.90;8.75;;;;;;;-2.41;73.35;99905.30;1719093;80;26730;-76
2021/01/31 09:55:03;;;;;;;27.98;10.32;;;;;;;-2.39;73.27;99902.66;1729088;79;26333;-76
2021/01/31 09:57:30;;;;;;;28.50;10.18;;;;;;;-2.40;73.14;99906.17;1739810;79;26098;-74
2021/01/31 10:00:12;;;;;;;30.08;10.78;;;;;;;-2.42;72.70;99907.92;1746112;80;26547;-78
2021/01/31 10:02:40;;;;;;;23.87;8.63;;;;;;;-2.42;73.01;99911.42;1740491;79;27879;-74
2021/01/31 10:05:11;;;;;;;21.45;9.23;;;;;;;-2.41;73.00;99904.42;1741809;80;26908;-74
2021/01/31 10:07:43;;;;;;;31.95;10.23;;;;;;;-2.37;72.96;99909.66;1764704;78;25752;-75
2021/01/31 10:10:40;;;;;;;21.52;8.10;;;;;;;-2.39;72.64;99903.98;1763636;79;25624;-76
2021/01/31 10:13:34;;;;;;;32.65;11.33;;;;;;;-2.44;72.54;99909.24;1744417;80;26007;-78
2021/01/31 10:16:15;;;;;;;32.30;11.10;;;;;;;-2.47;72.38;99909.69;1739658;79;27970;-77
2021/01/31 10:18:43;;;;;;;51.50;15.25;;;;;;;-2.43;72.55;99907.05;1745850;78;26397;-75
2021/01/31 10:21:30;;;;;;;34.35;10.35;;;;;;;-2.44;72.26;99903.12;1744300;80;26399;-78
2021/01/31 10:24:29;;;;;;;23.18;9.73;;;;;;;-2.42;72.10;99904.86;1743412;80;26075;-77
2021/01/31 10:27:27;;;;;;;29.07;8.48;;;;;;;-2.38;71.90;99903.97;1740631;80;25836;-78
2021/01/31 10:30:00;;;;;;;27.82;10.82;;;;;;;-2.36;72.20;99905.28;1738197;80;27753;-77
2021/01/31 10:32:40;;;;;;;31.37;11.50;;;;;;;-2.29;72.06;99907.01;1739864;79;25894;-75
2021/01/31 10:35:28;;;;;;;27.27;8.70;;;;;;;-2.27;72.07;99898.69;1736224;80;25825;-75
2021/01/31 10:37:58;;;;;;;36.33;11.48;;;;;;;-2.22;72.03;99903.48;1736486;80;26644;-77
2021/01/31 10:40:26;;;;;;;31.50;11.25;;;;;;;-2.16;72.01;99899.52;1743138;80;25828;-76
2021/01/31 10:42:54;;;;;;;28.25;9.28;;;;;;;-2.08;72.02;99904.74;1748188;79;27813;-76
2021/01/31 10:45:24;;;;;;;25.48;8.80;;;;;;;-2.00;71.98;99897.27;1736459;80;26060;-76
2021/01/31 10:47:52;;;;;;;20.02;8.60;;;;;;;-1.94;71.73;99896.36;1742667;79;25897;-77
2021/01/31 10:50:20;;;;;;;17.92;8.48;;;;;;;-1.90;71.35;99900.72;1767491;80;25929;-77
2021/01/31 10:52:48;;;;;;;22.15;9.38;;;;;;;-1.92;71.10;99897.23;1743894;78;26737;-76
2021/01/31 10:55:16;;;;;;;32.42;9.78;;;;;;;-1.97;71.03;99902.95;1743726;80;28430;-75
2021/01/31 10:57:44;;;;;;;23.27;9.23;;;;;;;-1.98;71.12;99899.88;1744088;79;25963;-75
2021/01/31 11:00:13;;;;;;;31.07;11.65;;;;;;;-1.90;71.08;99904.66;1757874;79;26003;-78
2021/01/31 11:02:41;;;;;;;29.45;11.15;;;;;;;-1.79;70.86;99895.41;1727282;80;25972;-75
2021/01/31 11:05:13;;;;;;;26.17;10.88;;;;;;;-1.77;70.92;99901.53;1752142;79;25948;-76
2021/01/31 11:07:41;;;;;;;36.95;11.53;;;;;;;-1.79;70.73;99898.91;1708577;79;28232;-78
2021/01/31 11:10:13;;;;;;;22.30;9.30;;;;;;;-1.83;70.68;99888.42;1767072;79;25820;-76
2021/01/31 11:12:43;;;;;;;27.70;10.63;;;;;;;-1.86;70.53;99886.69;1768191;78;25919;-77
2021/01/31 11:15:13;;;;;;;39.70;13.20;;;;;;;-1.88;70.21;99896.77;1751780;79;26135;-76
2021/01/31 11:17:41;;;;;;;30.68;11.35;;;;;;;-1.92;70.10;99901.16;1768405;78;26020;-77
2021/01/31 11:20:10;;;;;;;30.17;13.35;;;;;;;-1.98;70.08;99885.00;1756761;79;27493;-76
2021/01/31 11:22:38;;;;;;;43.75;17.62;;;;;;;-1.95;69.96;99891.98;1767507;78;25887;-76
2021/01/31 11:25:08;;;;;;;45.95;18.23;;;;;;;-1.95;70.13;99882.80;1769363;78;26644;-77
2021/01/31 11:27:35;;;;;;;28.65;10.40;;;;;;;-1.90;70.20;99884.09;1754602;79;26025;-76
2021/01/31 11:30:05;;;;;;;27.85;11.03;;;;;;;-1.87;70.02;99884.95;1738704;79;26355;-76
2021/01/31 11:32:33;;;;;;;23.22;9.58;;;;;;;-1.83;70.13;99885.36;1755623;79;27957;-76
2021/01/31 11:35:00;;;;;;;35.05;10.95;;;;;;;-1.79;69.98;99887.09;1743596;79;25926;-75
2021/01/31 11:37:28;;;;;;;26.07;11.18;;;;;;;-1.77;70.12;99889.27;1754909;78;26836;-74
2021/01/31 11:39:56;;;;;;;29.90;11.45;;;;;;;-1.75;69.85;99877.44;1764349;79;25982;-76
2021/01/31 11:42:24;;;;;;;31.45;11.00;;;;;;;-1.75;69.88;99884.00;1758298;79;25926;-75
2021/01/31 11:44:51;;;;;;;25.00;11.12;;;;;;;-1.74;69.82;99885.31;1761351;78;25949;-78
2021/01/31 11:47:19;;;;;;;25.82;10.58;;;;;;;-1.76;69.42;99877.00;1763014;79;26375;-73
2021/01/31 11:49:47;;;;;;;21.15;9.05;;;;;;;-1.75;69.39;99879.63;1756883;79;25882;-76
2021/01/31 11:52:15;;;;;;;33.63;12.35;;;;;;;-1.75;69.08;99869.11;1752127;78;25952;-76
2021/01/31 11:54:44;;;;;;;24.70;10.23;;;;;;;-1.71;69.36;99884.42;1751370;78;25848;-76
2021/01/31 11:57:12;;;;;;;28.65;12.25;;;;;;;-1.71;69.30;99872.16;1767916;79;27838;-75
2021/01/31 11:59:42;;;;;;;31.05;12.33;;;;;;;-1.71;69.05;99864.27;1736483;80;25806;-75
2021/01/31 12:02:10;;;;;;;30.72;11.65;;;;;;;-1.66;69.29;99857.67;1763695;80;25843;-75
2021/01/31 12:04:38;;;;;;;37.38;13.35;;;;;;;-1.61;69.34;99855.02;1749281;78;25839;-76
2021/01/31 12:07:07;;;;;;;37.33;14.75;;;;;;;-1.57;69.42;99855.42;1751237;80;25882;-76